createdAt,value
2019-06-01T00:00:18.897Z,0.00
2019-06-01T00:01:19.096Z,0.00
2019-06-01T00:02:19.415Z,0.00
2019-06-01T00:03:19.506Z,0.00
2019-06-01T00:04:19.718Z,0.00
2019-06-01T00:05:19.977Z,0.00
2019-06-01T00:06:20.049Z,0.00
2019-06-01T00:07:20.255Z,0.00
2019-06-01T00:08:20.473Z,0.00
2019-06-01T00:09:20.679Z,0.00
2019-06-01T00:10:20.890Z,0.00
2019-06-01T00:11:21.102Z,0.00
2019-06-01T00:12:21.302Z,0.00
2019-06-01T00:13:21.512Z,0.00
2019-06-01T00:14:21.715Z,0.00
2019-06-01T00:15:21.929Z,0.00
2019-06-01T00:16:22.147Z,0.00
2019-06-01T00:17:22.386Z,0.00
2019-06-01T00:18:22.624Z,0.00
2019-06-01T00:19:22.710Z,0.00
2019-06-01T00:20:24.536Z,0.00
2019-06-01T00:21:23.122Z,0.00
2019-06-01T00:22:23.326Z,0.00
2019-06-01T00:23:23.555Z,0.00
2019-06-01T00:24:25.544Z,0.00
2019-06-01T00:25:23.985Z,0.00
2019-06-01T00:26:24.195Z,0.00
2019-06-01T00:27:24.418Z,0.00
2019-06-01T00:28:24.627Z,0.00
2019-06-01T00:29:24.836Z,0.00
2019-06-01T00:30:27.383Z,0.00
2019-06-01T00:31:25.263Z,0.00
2019-06-01T00:32:25.467Z,0.00
2019-06-01T00:33:25.690Z,0.00
2019-06-01T00:34:25.892Z,0.00
2019-06-01T00:35:26.094Z,0.00
2019-06-01T00:36:26.312Z,0.00
2019-06-01T00:37:26.519Z,0.00
2019-06-01T00:38:26.735Z,0.00
2019-06-01T00:39:26.941Z,0.00
2019-06-01T00:40:27.156Z,0.00
2019-06-01T00:41:27.371Z,0.00
2019-06-01T00:42:27.583Z,0.00
2019-06-01T00:43:27.789Z,0.00
2019-06-01T00:44:28.008Z,0.00
2019-06-01T00:45:28.213Z,0.00
2019-06-01T00:46:28.428Z,0.00
2019-06-01T00:47:28.638Z,0.00
2019-06-01T00:48:28.839Z,0.00
2019-06-01T00:49:29.048Z,0.00
2019-06-01T00:50:29.253Z,0.00
2019-06-01T00:51:31.037Z,0.00
2019-06-01T00:52:29.624Z,0.00
2019-06-01T00:53:29.830Z,0.00
2019-06-01T00:54:30.055Z,0.00
2019-06-01T00:55:32.036Z,0.00
2019-06-01T00:56:30.494Z,0.00
2019-06-01T00:57:30.693Z,0.00
2019-06-01T00:58:30.900Z,0.00
2019-06-01T00:59:31.478Z,0.00
2019-06-01T01:00:43.246Z,0.00
2019-06-01T01:01:31.560Z,0.00
2019-06-01T01:02:31.761Z,0.00
2019-06-01T01:03:31.974Z,0.00
2019-06-01T01:04:32.176Z,0.00
2019-06-01T01:05:32.402Z,0.00
2019-06-01T01:06:32.585Z,0.00
2019-06-01T01:07:32.801Z,0.00
2019-06-01T01:08:32.996Z,0.00
2019-06-01T01:09:33.286Z,0.00
2019-06-01T01:10:33.408Z,0.00
2019-06-01T01:11:33.638Z,0.00
2019-06-01T01:12:33.887Z,0.00
2019-06-01T01:13:35.051Z,0.00
2019-06-01T01:14:36.031Z,0.00
2019-06-01T01:15:34.497Z,0.00
2019-06-01T01:16:34.704Z,0.00
2019-06-01T01:17:34.916Z,0.00
2019-06-01T01:18:35.124Z,0.00
2019-06-01T01:19:35.344Z,0.00
2019-06-01T01:20:35.547Z,0.00
2019-06-01T01:21:35.819Z,0.00
2019-06-01T01:22:36.008Z,0.00
2019-06-01T01:23:36.188Z,0.00
2019-06-01T01:24:36.400Z,0.00
2019-06-01T01:25:36.700Z,0.00
2019-06-01T01:26:36.865Z,0.00
2019-06-01T01:27:36.988Z,0.00
2019-06-01T01:28:37.199Z,0.00
2019-06-01T01:29:37.415Z,0.00
2019-06-01T01:30:37.624Z,0.00
2019-06-01T01:31:39.608Z,0.00
2019-06-01T01:32:38.028Z,0.00
2019-06-01T01:33:38.227Z,0.00
2019-06-01T01:34:38.447Z,0.00
2019-06-01T01:35:38.660Z,0.00
2019-06-01T01:36:38.867Z,0.00
2019-06-01T01:37:39.098Z,0.00
2019-06-01T01:38:41.049Z,0.00
2019-06-01T01:39:39.493Z,0.00
2019-06-01T01:40:39.709Z,0.00
2019-06-01T01:41:39.919Z,0.00
2019-06-01T01:42:40.165Z,0.00
2019-06-01T01:43:40.252Z,0.00
2019-06-01T01:44:40.454Z,0.00
2019-06-01T01:45:40.776Z,0.00
2019-06-01T01:46:40.862Z,0.00
2019-06-01T01:47:41.124Z,0.00
2019-06-01T01:48:41.308Z,0.00
2019-06-01T01:49:41.518Z,0.00
2019-06-01T01:50:41.729Z,0.00
2019-06-01T01:51:41.945Z,0.00
2019-06-01T01:52:42.198Z,0.00
2019-06-01T01:53:49.077Z,0.00
2019-06-01T01:54:44.052Z,0.00
2019-06-01T01:55:46.545Z,0.00
2019-06-01T01:56:42.748Z,0.00
2019-06-01T01:57:42.963Z,0.00
2019-06-01T01:58:43.164Z,0.00
2019-06-01T01:59:43.381Z,0.00
2019-06-01T02:00:43.584Z,0.00
2019-06-01T02:01:43.782Z,0.00
2019-06-01T02:02:43.993Z,0.00
2019-06-01T02:03:44.206Z,0.00
2019-06-01T02:04:44.411Z,0.00
2019-06-01T02:05:44.618Z,0.00
2019-06-01T02:06:44.815Z,0.00
2019-06-01T02:07:46.567Z,0.00
2019-06-01T02:08:47.041Z,0.00
2019-06-01T02:09:47.038Z,0.00
2019-06-01T02:10:45.509Z,0.00
2019-06-01T02:11:45.723Z,0.00
2019-06-01T02:12:45.927Z,0.00
2019-06-01T02:13:46.140Z,0.00
2019-06-01T02:14:46.346Z,0.00
2019-06-01T02:15:46.546Z,0.00
2019-06-01T02:16:46.760Z,0.00
2019-06-01T02:17:46.966Z,0.00
2019-06-01T02:18:47.191Z,0.00
2019-06-01T02:19:47.387Z,0.00
2019-06-01T02:20:49.536Z,0.00
2019-06-01T02:21:50.556Z,0.00
2019-06-01T02:22:47.888Z,0.00
2019-06-01T02:23:48.097Z,0.00
2019-06-01T02:24:48.295Z,0.00
2019-06-01T02:25:48.495Z,0.00
2019-06-01T02:26:48.739Z,0.00
2019-06-01T02:27:48.917Z,0.00
2019-06-01T02:28:49.130Z,0.00
2019-06-01T02:29:49.346Z,0.00
2019-06-01T02:30:51.552Z,0.00
2019-06-01T02:31:49.773Z,0.00
2019-06-01T02:32:49.979Z,0.00
2019-06-01T02:33:50.092Z,0.00
2019-06-01T02:34:50.302Z,0.00
2019-06-01T02:35:50.513Z,0.00
2019-06-01T02:36:50.734Z,0.00
2019-06-01T02:37:50.937Z,0.00
2019-06-01T02:38:51.146Z,0.00
2019-06-01T02:39:51.357Z,0.00
2019-06-01T02:40:51.563Z,0.00
2019-06-01T02:41:51.774Z,0.00
2019-06-01T02:42:51.980Z,0.00
2019-06-01T02:43:54.745Z,0.00
2019-06-01T02:44:52.403Z,0.00
2019-06-01T02:45:52.598Z,0.00
2019-06-01T02:46:52.813Z,0.00
2019-06-01T02:47:53.012Z,0.00
2019-06-01T02:48:53.216Z,0.00
2019-06-01T02:49:53.443Z,0.00
2019-06-01T02:50:53.644Z,0.00
2019-06-01T02:51:55.039Z,0.00
2019-06-01T02:52:55.434Z,0.00
2019-06-01T02:53:55.501Z,0.00
2019-06-01T02:54:55.568Z,0.00
2019-06-01T02:55:55.735Z,0.00
2019-06-01T02:56:55.778Z,0.00
2019-06-01T02:57:56.542Z,0.00
2019-06-01T02:58:56.093Z,0.00
2019-06-01T02:59:56.302Z,0.00
2019-06-01T03:00:56.567Z,0.00
2019-06-01T03:01:58.198Z,0.00
2019-06-01T03:02:56.582Z,0.00
2019-06-01T03:03:59.528Z,5.63
2019-06-01T03:04:57.054Z,5.63
2019-06-01T03:05:57.422Z,5.63
2019-06-01T03:06:59.524Z,5.63
2019-06-01T03:07:57.294Z,5.63
2019-06-01T03:08:57.710Z,5.63
2019-06-01T03:09:58.711Z,5.63
2019-06-01T03:10:59.729Z,11.25
2019-06-01T03:12:00.367Z,11.25
2019-06-01T03:12:58.168Z,11.25
2019-06-01T03:13:58.313Z,11.25
2019-06-01T03:14:58.483Z,16.88
2019-06-01T03:15:58.697Z,16.88
2019-06-01T03:16:59.775Z,16.88
2019-06-01T03:17:59.433Z,22.50
2019-06-01T03:18:59.657Z,22.50
2019-06-01T03:19:59.618Z,22.50
2019-06-01T03:21:01.701Z,28.13
2019-06-01T03:21:59.747Z,28.13
2019-06-01T03:22:59.961Z,28.13
2019-06-01T03:24:00.184Z,33.75
2019-06-01T03:25:00.397Z,33.75
2019-06-01T03:26:01.964Z,39.38
2019-06-01T03:27:02.882Z,39.38
2019-06-01T03:28:02.106Z,45.00
2019-06-01T03:29:03.236Z,45.00
2019-06-01T03:30:03.927Z,45.00
2019-06-01T03:31:03.551Z,50.63
2019-06-01T03:32:26.191Z,50.63
2019-06-01T03:33:06.125Z,50.63
2019-06-01T03:34:04.462Z,56.25
2019-06-01T03:35:02.900Z,56.25
2019-06-01T03:36:02.837Z,56.25
2019-06-01T03:37:02.968Z,61.88
2019-06-01T03:38:03.094Z,61.88
2019-06-01T03:39:03.994Z,61.88
2019-06-01T03:40:06.800Z,61.88
2019-06-01T03:41:04.022Z,61.88
2019-06-01T03:42:05.125Z,67.50
2019-06-01T03:43:04.355Z,67.50
2019-06-01T03:44:04.500Z,73.13
2019-06-01T03:45:05.504Z,73.13
2019-06-01T03:46:04.776Z,73.13
2019-06-01T03:47:07.585Z,73.13
2019-06-01T03:48:05.114Z,73.13
2019-06-01T03:49:05.761Z,73.13
2019-06-01T03:50:06.806Z,73.13
2019-06-01T03:51:05.785Z,73.13
2019-06-01T03:52:06.929Z,73.13
2019-06-01T03:53:06.165Z,73.13
2019-06-01T03:54:06.907Z,73.13
2019-06-01T03:55:08.547Z,67.50
2019-06-01T03:56:06.992Z,61.88
2019-06-01T03:57:07.285Z,61.88
2019-06-01T03:58:07.304Z,61.88
2019-06-01T03:59:07.380Z,61.88
2019-06-01T04:00:09.565Z,67.50
2019-06-01T04:01:07.742Z,73.13
2019-06-01T04:02:09.118Z,73.13
2019-06-01T04:03:09.219Z,78.75
2019-06-01T04:04:09.348Z,84.38
2019-06-01T04:05:09.344Z,84.38
2019-06-01T04:06:09.456Z,90.00
2019-06-01T04:07:10.625Z,90.00
2019-06-01T04:08:09.692Z,90.00
2019-06-01T04:09:09.928Z,90.00
2019-06-01T04:10:11.853Z,90.00
2019-06-01T04:11:09.875Z,95.63
2019-06-01T04:12:09.963Z,95.63
2019-06-01T04:13:12.040Z,95.63
2019-06-01T04:14:12.067Z,101.25
2019-06-01T04:15:14.594Z,106.88
2019-06-01T04:16:12.547Z,112.50
2019-06-01T04:17:12.153Z,118.13
2019-06-01T04:18:13.961Z,123.75
2019-06-01T04:19:12.199Z,129.38
2019-06-01T04:20:12.336Z,140.63
2019-06-01T04:21:13.547Z,146.25
2019-06-01T04:22:12.217Z,151.88
2019-06-01T04:23:12.423Z,157.50
2019-06-01T04:24:12.414Z,163.13
2019-06-01T04:25:12.491Z,168.75
2019-06-01T04:26:16.549Z,168.75
2019-06-01T04:27:14.554Z,168.75
2019-06-01T04:28:13.013Z,168.75
2019-06-01T04:29:13.214Z,163.13
2019-06-01T04:30:13.698Z,157.50
2019-06-01T04:31:13.638Z,151.88
2019-06-01T04:32:13.850Z,151.88
2019-06-01T04:33:14.068Z,146.25
2019-06-01T04:34:14.271Z,146.25
2019-06-01T04:35:14.492Z,146.25
2019-06-01T04:36:16.557Z,146.25
2019-06-01T04:37:16.543Z,146.25
2019-06-01T04:38:15.132Z,140.63
2019-06-01T04:39:15.336Z,140.63
2019-06-01T04:40:15.545Z,135.00
2019-06-01T04:41:15.772Z,129.38
2019-06-01T04:42:15.966Z,129.38
2019-06-01T04:43:16.247Z,129.38
2019-06-01T04:44:18.476Z,135.00
2019-06-01T04:45:16.517Z,135.00
2019-06-01T04:46:16.736Z,135.00
2019-06-01T04:47:16.941Z,135.00
2019-06-01T04:48:17.160Z,135.00
2019-06-01T04:49:17.383Z,140.63
2019-06-01T04:50:20.564Z,140.63
2019-06-01T04:51:17.771Z,140.63
2019-06-01T04:52:18.020Z,140.63
2019-06-01T04:53:18.196Z,140.63
2019-06-01T04:54:18.406Z,140.63
2019-06-01T04:55:18.612Z,151.88
2019-06-01T04:56:18.828Z,151.88
2019-06-01T04:57:19.035Z,151.88
2019-06-01T04:58:19.251Z,157.50
2019-06-01T04:59:21.063Z,168.75
2019-06-01T05:00:27.280Z,168.75
2019-06-01T05:01:19.741Z,174.38
2019-06-01T05:02:19.942Z,174.38
2019-06-01T05:03:22.104Z,174.38
2019-06-01T05:04:20.281Z,174.38
2019-06-01T05:05:20.496Z,168.75
2019-06-01T05:06:20.712Z,168.75
2019-06-01T05:07:20.914Z,174.38
2019-06-01T05:08:23.080Z,174.38
2019-06-01T05:09:23.057Z,180.00
2019-06-01T05:10:23.047Z,180.00
2019-06-01T05:11:21.515Z,185.63
2019-06-01T05:12:21.719Z,185.63
2019-06-01T05:13:21.976Z,191.25
2019-06-01T05:14:22.163Z,191.25
2019-06-01T05:15:22.384Z,185.63
2019-06-01T05:16:22.595Z,185.63
2019-06-01T05:17:22.809Z,185.63
2019-06-01T05:18:23.016Z,180.00
2019-06-01T05:19:23.230Z,185.63
2019-06-01T05:20:23.439Z,185.63
2019-06-01T05:21:23.718Z,185.63
2019-06-01T05:22:23.791Z,191.25
2019-06-01T05:23:24.005Z,191.25
2019-06-01T05:24:24.207Z,196.88
2019-06-01T05:25:24.429Z,202.50
2019-06-01T05:26:24.644Z,208.13
2019-06-01T05:27:24.882Z,213.75
2019-06-01T05:28:24.964Z,213.75
2019-06-01T05:29:25.233Z,219.38
2019-06-01T05:30:25.415Z,225.00
2019-06-01T05:31:25.631Z,230.63
2019-06-01T05:32:25.842Z,236.25
2019-06-01T05:33:37.022Z,241.88
2019-06-01T05:34:26.266Z,247.50
2019-06-01T05:35:26.479Z,253.13
2019-06-01T05:36:26.684Z,258.75
2019-06-01T05:37:28.551Z,258.75
2019-06-01T05:38:27.005Z,264.38
2019-06-01T05:39:27.220Z,264.38
2019-06-01T05:40:27.424Z,270.00
2019-06-01T05:41:27.686Z,281.25
2019-06-01T05:42:27.886Z,292.50
2019-06-01T05:43:30.050Z,303.75
2019-06-01T05:44:28.260Z,315.00
2019-06-01T05:45:28.476Z,315.00
2019-06-01T05:46:28.677Z,320.63
2019-06-01T05:47:28.990Z,326.25
2019-06-01T05:48:30.793Z,326.25
2019-06-01T05:49:29.293Z,331.88
2019-06-01T05:50:31.051Z,348.75
2019-06-01T05:51:31.564Z,365.63
2019-06-01T05:52:29.776Z,388.13
2019-06-01T05:53:31.609Z,410.63
2019-06-01T05:54:30.344Z,450.00
2019-06-01T05:55:30.296Z,1023.75
2019-06-01T05:56:30.509Z,652.50
2019-06-01T05:57:30.725Z,528.75
2019-06-01T05:58:32.577Z,736.88
2019-06-01T05:59:31.148Z,725.63
2019-06-01T06:00:33.125Z,956.25
2019-06-01T06:01:31.499Z,714.38
2019-06-01T06:02:33.549Z,967.50
2019-06-01T06:03:39.923Z,641.25
2019-06-01T06:04:32.069Z,601.88
2019-06-01T06:05:32.278Z,568.13
2019-06-01T06:06:32.491Z,556.88
2019-06-01T06:07:34.550Z,601.88
2019-06-01T06:08:32.912Z,579.38
2019-06-01T06:09:34.553Z,573.75
2019-06-01T06:10:33.137Z,579.38
2019-06-01T06:11:33.348Z,579.38
2019-06-01T06:12:33.555Z,562.50
2019-06-01T06:13:33.776Z,551.25
2019-06-01T06:14:34.010Z,534.38
2019-06-01T06:15:36.094Z,534.38
2019-06-01T06:16:34.386Z,540.00
2019-06-01T06:17:36.551Z,562.50
2019-06-01T06:18:36.564Z,601.88
2019-06-01T06:19:34.910Z,658.13
2019-06-01T06:20:35.147Z,708.75
2019-06-01T06:21:35.273Z,742.50
2019-06-01T06:22:37.058Z,787.50
2019-06-01T06:23:39.050Z,1102.50
2019-06-01T06:24:35.651Z,1018.13
2019-06-01T06:25:39.705Z,961.88
2019-06-01T06:26:36.029Z,1170.00
2019-06-01T06:27:38.062Z,877.50
2019-06-01T06:28:36.467Z,1035.00
2019-06-01T06:29:40.556Z,973.13
2019-06-01T06:30:40.573Z,871.88
2019-06-01T06:31:38.548Z,883.13
2019-06-01T06:32:37.179Z,843.75
2019-06-01T06:33:55.575Z,860.63
2019-06-01T06:34:43.100Z,810.00
2019-06-01T06:35:40.558Z,798.75
2019-06-01T06:36:37.936Z,810.00
2019-06-01T06:37:38.088Z,815.63
2019-06-01T06:38:40.063Z,787.50
2019-06-01T06:39:38.525Z,765.00
2019-06-01T06:40:38.734Z,748.13
2019-06-01T06:41:40.590Z,736.88
2019-06-01T06:42:55.057Z,720.00
2019-06-01T06:43:46.666Z,703.13
2019-06-01T06:44:41.608Z,680.63
2019-06-01T06:45:40.920Z,646.88
2019-06-01T06:46:39.936Z,624.38
2019-06-01T06:47:40.019Z,613.13
2019-06-01T06:48:42.054Z,607.50
2019-06-01T06:49:40.381Z,646.88
2019-06-01T06:50:40.625Z,613.13
2019-06-01T06:51:44.567Z,624.38
2019-06-01T06:52:41.018Z,624.38
2019-06-01T06:53:43.054Z,624.38
2019-06-01T06:54:43.058Z,630.00
2019-06-01T06:55:45.283Z,635.63
2019-06-01T06:56:41.761Z,652.50
2019-06-01T06:57:43.023Z,675.00
2019-06-01T06:58:47.094Z,720.00
2019-06-01T06:59:44.056Z,753.75
2019-06-01T07:00:42.644Z,798.75
2019-06-01T07:01:44.568Z,804.38
2019-06-01T07:02:44.574Z,810.00
2019-06-01T07:03:47.082Z,810.00
2019-06-01T07:04:43.292Z,804.38
2019-06-01T07:05:45.089Z,781.88
2019-06-01T07:06:47.563Z,753.75
2019-06-01T07:07:45.560Z,759.38
2019-06-01T07:08:49.010Z,736.88
2019-06-01T07:09:44.279Z,742.50
2019-06-01T07:10:44.490Z,787.50
2019-06-01T07:11:44.772Z,815.63
2019-06-01T07:12:47.169Z,883.13
2019-06-01T07:13:47.062Z,894.38
2019-06-01T07:14:45.266Z,933.75
2019-06-01T07:15:47.070Z,990.00
2019-06-01T07:16:47.903Z,1096.88
2019-06-01T07:17:47.568Z,1023.75
2019-06-01T07:18:49.608Z,1063.13
2019-06-01T07:19:48.123Z,1136.25
2019-06-01T07:20:48.062Z,1265.63
2019-06-01T07:21:46.838Z,1288.13
2019-06-01T07:22:48.546Z,1400.63
2019-06-01T07:24:07.940Z,1220.63
2019-06-01T07:24:49.074Z,1203.75
2019-06-01T07:25:49.091Z,1276.88
2019-06-01T07:26:49.105Z,1608.75
2019-06-01T07:27:49.090Z,1411.88
2019-06-01T07:28:49.589Z,2154.38
2019-06-01T07:29:49.558Z,1524.38
2019-06-01T07:30:51.143Z,2874.38
2019-06-01T07:31:48.407Z,2070.00
2019-06-01T07:32:51.044Z,1434.38
2019-06-01T07:33:48.643Z,1355.63
2019-06-01T07:34:48.883Z,1316.25
2019-06-01T07:35:55.274Z,1597.50
2019-06-01T07:36:53.065Z,1316.25
2019-06-01T07:37:53.064Z,1586.25
2019-06-01T07:38:50.683Z,1558.13
2019-06-01T07:40:13.868Z,1546.88
2019-06-01T07:40:52.527Z,1715.63
2019-06-01T07:42:13.085Z,1676.25
2019-06-01T07:42:50.379Z,2019.38
2019-06-01T07:43:53.598Z,3380.63
2019-06-01T07:44:50.838Z,2593.13
2019-06-01T07:45:51.046Z,1777.50
2019-06-01T07:47:16.069Z,1794.38
2019-06-01T07:47:53.717Z,2030.63
2019-06-01T07:48:53.595Z,1788.75
2019-06-01T07:49:55.016Z,1732.50
2019-06-01T07:50:53.576Z,3791.25
2019-06-01T07:51:52.264Z,2761.88
2019-06-01T07:52:54.062Z,3048.75
2019-06-01T07:54:00.580Z,3673.13
2019-06-01T07:54:52.852Z,2368.13
2019-06-01T07:55:54.900Z,2390.63
2019-06-01T07:56:55.119Z,3532.50
2019-06-01T07:58:00.067Z,3459.38
2019-06-01T07:58:55.935Z,2205.00
2019-06-01T07:59:53.820Z,3420.00
2019-06-01T08:00:54.077Z,3211.88
2019-06-01T08:01:58.086Z,3262.50
2019-06-01T08:02:56.153Z,2880.00
2019-06-01T08:03:54.750Z,3358.13
2019-06-01T08:04:54.963Z,3397.50
2019-06-01T08:05:56.574Z,3296.25
2019-06-01T08:06:57.152Z,3397.50
2019-06-01T08:08:11.073Z,3420.00
2019-06-01T08:08:58.517Z,3504.38
2019-06-01T08:09:56.801Z,3504.38
2019-06-01T08:11:02.575Z,2486.25
2019-06-01T08:11:59.017Z,3285.00
2019-06-01T08:12:58.108Z,3161.25
2019-06-01T08:13:58.701Z,3228.75
2019-06-01T08:15:01.082Z,3240.00
2019-06-01T08:15:58.575Z,3099.38
2019-06-01T08:16:58.590Z,3408.75
2019-06-01T08:17:57.418Z,3448.13
2019-06-01T08:18:59.239Z,3448.13
2019-06-01T08:20:01.574Z,3549.38
2019-06-01T08:21:01.796Z,3178.13
2019-06-01T08:21:59.710Z,3453.75
2019-06-01T08:22:58.737Z,3616.88
2019-06-01T08:24:02.924Z,3678.75
2019-06-01T08:25:00.733Z,3695.63
2019-06-01T08:26:01.528Z,3695.63
2019-06-01T08:27:02.073Z,3650.63
2019-06-01T08:28:01.171Z,3628.13
2019-06-01T08:29:01.127Z,3673.13
2019-06-01T08:30:00.573Z,3690.00
2019-06-01T08:31:01.575Z,3616.88
2019-06-01T08:32:02.552Z,3543.75
2019-06-01T08:33:08.068Z,3048.75
2019-06-01T08:34:08.512Z,3723.75
2019-06-01T08:35:08.423Z,3819.38
2019-06-01T08:36:02.572Z,3493.13
2019-06-01T08:37:02.953Z,3555.00
2019-06-01T08:38:08.029Z,3588.75
2019-06-01T08:39:02.086Z,3639.38
2019-06-01T08:40:05.072Z,3650.63
2019-06-01T08:41:03.915Z,3656.25
2019-06-01T08:42:01.934Z,3577.50
2019-06-01T08:43:04.577Z,3622.50
2019-06-01T08:44:06.065Z,3633.75
2019-06-01T08:45:02.933Z,3684.38
2019-06-01T08:46:02.681Z,3678.75
2019-06-01T08:47:04.578Z,3678.75
2019-06-01T08:49:38.564Z,3757.50
2019-06-01T08:50:35.022Z,3751.88
2019-06-01T08:51:39.115Z,3763.13
2019-06-01T08:52:37.128Z,3763.13
2019-06-01T08:53:40.257Z,3735.00
2019-06-01T08:54:37.685Z,3538.13
2019-06-01T08:55:38.523Z,3673.13
2019-06-01T08:56:38.734Z,3476.25
2019-06-01T08:57:40.096Z,3645.00
2019-06-01T08:58:37.793Z,3656.25
2019-06-01T08:59:39.654Z,3256.88
2019-06-01T09:00:37.139Z,3571.88
2019-06-01T09:01:39.156Z,3543.75
2019-06-01T09:02:44.153Z,3751.88
2019-06-01T09:03:46.634Z,3628.13
2019-06-01T09:04:38.062Z,3296.25
2019-06-01T09:05:50.237Z,3549.38
2019-06-01T09:06:40.974Z,3639.38
2019-06-01T09:07:40.125Z,3920.63
2019-06-01T09:08:40.582Z,3819.38
2019-06-01T09:09:46.657Z,3847.50
2019-06-01T09:10:40.178Z,3825.00
2019-06-01T09:12:03.096Z,3836.25
2019-06-01T09:12:42.172Z,3825.00
2019-06-01T09:13:42.590Z,3864.38
2019-06-01T09:14:41.573Z,3858.75
2019-06-01T09:15:41.572Z,3886.88
2019-06-01T09:16:44.071Z,3870.00
2019-06-01T09:17:41.046Z,3886.88
2019-06-01T09:18:42.582Z,3892.50
2019-06-01T09:19:43.690Z,3864.38
2019-06-01T09:20:42.640Z,3847.50
2019-06-01T09:21:45.093Z,3847.50
2019-06-01T09:22:48.247Z,3853.13
2019-06-01T09:23:43.570Z,3875.63
2019-06-01T09:24:42.527Z,3943.13
2019-06-01T09:25:46.109Z,3791.25
2019-06-01T09:26:44.155Z,3943.13
2019-06-01T09:27:46.265Z,3830.63
2019-06-01T09:28:44.355Z,3870.00
2019-06-01T09:29:44.761Z,3729.38
2019-06-01T09:30:47.202Z,3830.63
2019-06-01T09:31:43.301Z,4050.00
2019-06-01T09:32:45.102Z,4027.50
2019-06-01T09:33:43.710Z,4055.63
2019-06-01T09:34:45.023Z,4016.25
2019-06-01T09:35:54.525Z,3633.75
2019-06-01T09:36:48.174Z,3943.13
2019-06-01T09:38:07.547Z,3645.00
2019-06-01T09:38:44.879Z,3729.38
2019-06-01T09:39:47.144Z,4072.50
2019-06-01T09:41:08.419Z,4050.00
2019-06-01T09:41:49.121Z,4027.50
2019-06-01T09:42:47.607Z,4010.63
2019-06-01T09:43:51.907Z,4010.63
2019-06-01T09:44:50.088Z,4050.00
2019-06-01T09:45:53.121Z,4044.38
2019-06-01T09:46:48.100Z,4021.88
2019-06-01T09:47:46.954Z,4033.13
2019-06-01T09:48:48.074Z,4033.13
2019-06-01T09:49:51.602Z,4038.75
2019-06-01T09:50:49.083Z,4005.00
2019-06-01T09:51:49.065Z,4033.13
2019-06-01T09:52:49.728Z,4016.25
2019-06-01T09:53:52.614Z,3999.38
2019-06-01T09:54:49.687Z,3976.88
2019-06-01T09:55:50.059Z,3960.00
2019-06-01T09:56:48.319Z,3943.13
2019-06-01T09:57:57.003Z,3982.50
2019-06-01T09:58:50.660Z,4021.88
2019-06-01T09:59:50.675Z,3988.13
2019-06-01T10:00:51.130Z,3971.25
2019-06-01T10:01:50.403Z,3965.63
2019-06-01T10:02:55.457Z,3971.25
2019-06-01T10:03:52.083Z,3982.50
2019-06-01T10:04:50.114Z,3993.75
2019-06-01T10:06:01.326Z,3960.00
2019-06-01T10:06:57.091Z,4021.88
2019-06-01T10:07:52.094Z,4038.75
2019-06-01T10:08:54.607Z,3864.38
2019-06-01T10:09:52.597Z,3667.50
2019-06-01T10:10:53.533Z,3948.75
2019-06-01T10:11:55.201Z,3915.00
2019-06-01T10:12:53.077Z,3555.00
2019-06-01T10:13:52.786Z,3943.13
2019-06-01T10:14:51.932Z,3988.13
2019-06-01T10:15:54.102Z,3971.25
2019-06-01T10:16:59.208Z,3982.50
2019-06-01T10:17:54.131Z,3988.13
2019-06-01T10:18:54.204Z,3988.13
2019-06-01T10:19:56.573Z,3954.38
2019-06-01T10:20:57.083Z,3920.63
2019-06-01T10:21:55.043Z,3915.00
2019-06-01T10:23:00.075Z,3943.13
2019-06-01T10:23:55.632Z,3943.13
2019-06-01T10:25:14.903Z,3954.38
2019-06-01T10:25:55.172Z,3943.13
2019-06-01T10:26:56.098Z,3931.88
2019-06-01T10:27:55.610Z,3915.00
2019-06-01T10:28:57.562Z,3881.25
2019-06-01T10:30:00.524Z,3898.13
2019-06-01T10:30:56.031Z,3915.00
2019-06-01T10:32:00.119Z,3898.13
2019-06-01T10:32:57.265Z,3909.38
2019-06-01T10:33:57.662Z,3915.00
2019-06-01T10:34:57.897Z,3915.00
2019-06-01T10:35:57.114Z,3903.75
2019-06-01T10:36:58.078Z,3611.25
2019-06-01T10:37:56.542Z,3875.63
2019-06-01T10:38:58.643Z,3886.88
2019-06-01T10:39:56.884Z,3847.50
2019-06-01T10:40:59.134Z,3825.00
2019-06-01T10:41:59.167Z,3853.13
2019-06-01T10:43:04.087Z,3870.00
2019-06-01T10:44:01.093Z,3847.50
2019-06-01T10:44:59.601Z,3825.00
2019-06-01T10:45:59.091Z,3847.50
2019-06-01T10:46:58.060Z,3751.88
2019-06-01T10:47:59.784Z,3780.00
2019-06-01T10:49:00.282Z,3796.88
2019-06-01T10:50:01.478Z,3802.50
2019-06-01T10:51:00.419Z,3825.00
2019-06-01T10:52:05.246Z,3808.13
2019-06-01T10:53:00.762Z,3667.50
2019-06-01T10:54:01.487Z,3375.00
2019-06-01T10:55:05.718Z,3060.00
2019-06-01T10:56:01.623Z,2677.50
2019-06-01T10:57:15.692Z,2227.50
2019-06-01T10:58:01.354Z,1850.63
2019-06-01T10:59:06.714Z,1440.00
2019-06-01T11:00:04.358Z,1203.75
2019-06-01T11:01:01.669Z,995.63
2019-06-01T11:02:02.621Z,928.13
2019-06-01T11:03:06.369Z,928.13
2019-06-01T11:04:07.185Z,916.88
2019-06-01T11:05:01.544Z,900.00
2019-06-01T11:06:03.779Z,883.13
2019-06-01T11:07:04.109Z,900.00
2019-06-01T11:08:04.172Z,956.25
2019-06-01T11:09:04.149Z,1153.13
2019-06-01T11:10:03.618Z,1428.75
2019-06-01T11:11:03.819Z,1783.13
2019-06-01T11:12:09.576Z,2160.00
2019-06-01T11:13:12.142Z,2565.00
2019-06-01T11:14:05.085Z,2846.25
2019-06-01T11:15:05.831Z,3071.25
2019-06-01T11:16:03.770Z,3054.38
2019-06-01T11:17:11.665Z,2913.75
2019-06-01T11:18:07.049Z,2638.13
2019-06-01T11:19:05.715Z,2362.50
2019-06-01T11:20:08.580Z,1980.00
2019-06-01T11:21:33.508Z,1636.88
2019-06-01T11:22:06.596Z,1305.00
2019-06-01T11:23:07.075Z,1080.00
2019-06-01T11:24:05.413Z,911.25
2019-06-01T11:25:07.685Z,894.38
2019-06-01T11:26:07.578Z,894.38
2019-06-01T11:27:06.824Z,900.00
2019-06-01T11:28:10.011Z,905.63
2019-06-01T11:29:11.063Z,916.88
2019-06-01T11:30:09.080Z,922.50
2019-06-01T11:31:06.535Z,928.13
2019-06-01T11:32:08.664Z,956.25
2019-06-01T11:33:09.261Z,967.50
2019-06-01T11:34:09.219Z,978.75
2019-06-01T11:35:09.164Z,990.00
2019-06-01T11:36:11.219Z,990.00
2019-06-01T11:37:09.628Z,1018.13
2019-06-01T11:38:07.834Z,1040.63
2019-06-01T11:39:08.084Z,1046.25
2019-06-01T11:40:08.224Z,1057.50
2019-06-01T11:41:10.148Z,1063.13
2019-06-01T11:42:12.573Z,1085.63
2019-06-01T11:43:09.915Z,1102.50
2019-06-01T11:44:09.038Z,1096.88
2019-06-01T11:45:09.596Z,1125.00
2019-06-01T11:46:09.999Z,1119.38
2019-06-01T11:47:10.604Z,1113.75
2019-06-01T11:48:16.991Z,1119.38
2019-06-01T11:49:11.607Z,1125.00
2019-06-01T11:50:12.571Z,1102.50
2019-06-01T11:51:10.333Z,1102.50
2019-06-01T11:52:11.593Z,1091.25
2019-06-01T11:53:12.580Z,1085.63
2019-06-01T11:54:12.584Z,1080.00
2019-06-01T11:55:14.600Z,1068.75
2019-06-01T11:56:13.105Z,1068.75
2019-06-01T11:57:11.651Z,1063.13
2019-06-01T11:58:15.764Z,1063.13
2019-06-01T11:59:13.663Z,1068.75
2019-06-01T12:00:13.036Z,1080.00
2019-06-01T12:01:15.162Z,1074.38
2019-06-01T12:02:12.439Z,1068.75
2019-06-01T12:03:12.533Z,1085.63
2019-06-01T12:04:13.769Z,1057.50
2019-06-01T12:05:12.954Z,1001.25
2019-06-01T12:06:15.100Z,984.38
2019-06-01T12:07:17.907Z,967.50
2019-06-01T12:08:15.087Z,1040.63
2019-06-01T12:09:13.735Z,1035.00
2019-06-01T12:10:13.917Z,1051.88
2019-06-01T12:11:16.127Z,1091.25
2019-06-01T12:12:14.487Z,1057.50
2019-06-01T12:13:15.943Z,1012.50
2019-06-01T12:14:18.611Z,1057.50
2019-06-01T12:15:15.057Z,1063.13
2019-06-01T12:16:17.119Z,1091.25
2019-06-01T12:17:15.484Z,1029.38
2019-06-01T12:18:17.600Z,1203.75
2019-06-01T12:19:18.566Z,1248.75
2019-06-01T12:20:17.176Z,1265.63
2019-06-01T12:21:19.203Z,1260.00
2019-06-01T12:22:16.535Z,1226.25
2019-06-01T12:23:20.585Z,1215.00
2019-06-01T12:24:28.743Z,1198.13
2019-06-01T12:25:18.591Z,1220.63
2019-06-01T12:26:19.034Z,1209.38
2019-06-01T12:27:21.161Z,1203.75
2019-06-01T12:28:18.614Z,1147.50
2019-06-01T12:29:19.867Z,1153.13
2019-06-01T12:30:18.063Z,1153.13
2019-06-01T12:31:20.136Z,1012.50
2019-06-01T12:32:18.381Z,1057.50
2019-06-01T12:33:25.193Z,1130.63
2019-06-01T12:34:20.588Z,1125.00
2019-06-01T12:35:19.969Z,1119.38
2019-06-01T12:36:20.636Z,1113.75